createdAt,value
2019-03-18T00:03:54.297Z,0.60
2019-03-18T00:08:57.755Z,1.32
2019-03-18T00:14:01.207Z,0.53
2019-03-18T00:19:04.668Z,0.72
2019-03-18T00:24:08.120Z,0.60
2019-03-18T00:29:11.575Z,1.22
2019-03-18T00:34:15.115Z,2.58
2019-03-18T00:39:18.567Z,0.68
2019-03-18T00:44:22.020Z,0.40
2019-03-18T00:49:25.472Z,0.75
2019-03-18T00:54:28.927Z,1.10
2019-03-18T00:59:32.379Z,2.15
2019-03-18T01:04:35.831Z,0.45
2019-03-18T01:09:39.283Z,0.53
2019-03-18T01:14:42.742Z,0.40
2019-03-18T01:19:46.202Z,0.80
2019-03-18T01:24:49.652Z,0.40
2019-03-18T01:29:53.117Z,0.42
2019-03-18T01:34:57.052Z,0.45
2019-03-18T01:40:00.569Z,0.78
2019-03-18T01:45:05.087Z,0.40
2019-03-18T01:50:15.231Z,0.45
2019-03-18T01:55:18.700Z,0.57
2019-03-18T02:00:22.168Z,0.30
2019-03-18T02:05:25.624Z,0.70
2019-03-18T02:10:29.083Z,0.45
2019-03-18T02:15:32.541Z,0.60
2019-03-18T02:20:36.000Z,0.33
2019-03-18T02:25:39.459Z,0.70
2019-03-18T02:30:42.923Z,0.33
2019-03-18T02:35:46.380Z,0.47
2019-03-18T02:40:49.834Z,0.40
2019-03-18T02:46:08.920Z,0.72
2019-03-18T02:50:58.475Z,0.70
2019-03-18T02:56:01.927Z,0.55
2019-03-18T03:01:05.379Z,2.50
2019-03-18T03:06:08.833Z,0.42
2019-03-18T03:11:12.290Z,0.30
2019-03-18T03:16:26.758Z,0.80
2019-03-18T03:21:20.933Z,0.40
2019-03-18T03:26:24.373Z,0.40
2019-03-18T03:31:27.829Z,0.40
2019-03-18T03:36:31.275Z,0.42
2019-03-18T03:41:35.074Z,0.28
2019-03-18T03:46:43.529Z,0.30
2019-03-18T03:51:43.738Z,0.37
2019-03-18T03:56:47.281Z,0.33
2019-03-18T04:01:50.771Z,0.33
2019-03-18T04:06:54.378Z,0.72
2019-03-18T04:11:57.856Z,0.40
2019-03-18T04:17:02.666Z,0.50
2019-03-18T04:22:06.569Z,0.35
2019-03-18T04:27:10.044Z,0.42
2019-03-18T04:32:13.511Z,0.60
2019-03-18T04:37:16.993Z,0.80
2019-03-18T04:42:20.462Z,0.93
2019-03-18T04:47:23.931Z,1.55
2019-03-18T04:52:27.399Z,1.37
2019-03-18T04:57:30.873Z,2.37
2019-03-18T05:02:34.344Z,0.63
2019-03-18T05:07:37.816Z,2.55
2019-03-18T05:12:41.295Z,1.33
2019-03-18T05:17:44.764Z,0.70
2019-03-18T05:22:48.236Z,0.80
2019-03-18T05:27:51.706Z,0.90
2019-03-18T05:32:55.172Z,0.65
2019-03-18T05:37:58.648Z,3.40
2019-03-18T05:43:02.144Z,0.27
2019-03-18T05:48:05.592Z,0.30
2019-03-18T05:53:09.068Z,0.30
2019-03-18T05:58:12.531Z,0.93
2019-03-18T06:03:16.002Z,0.40
2019-03-18T06:08:19.475Z,0.30
2019-03-18T06:13:22.950Z,0.98
2019-03-18T06:18:26.415Z,0.80
2019-03-18T06:23:29.891Z,0.37
2019-03-18T06:28:33.368Z,0.40
2019-03-18T06:33:36.841Z,0.60
2019-03-18T06:38:40.314Z,1.22
2019-03-18T06:43:43.784Z,0.55
2019-03-18T06:48:47.262Z,0.37
2019-03-18T06:53:50.734Z,0.37
2019-03-18T06:58:54.372Z,1.10
2019-03-18T07:03:57.829Z,0.57
2019-03-18T07:09:01.289Z,0.30
2019-03-18T07:14:04.737Z,0.55
2019-03-18T07:19:08.193Z,0.35
2019-03-18T07:24:12.467Z,0.50
2019-03-18T07:29:15.923Z,0.82
2019-03-18T07:34:19.382Z,0.62
2019-03-18T07:39:22.835Z,0.50
2019-03-18T07:44:26.287Z,0.62
2019-03-18T07:49:29.756Z,2.45
2019-03-18T07:54:33.380Z,1.55
2019-03-18T07:59:36.946Z,1.53
2019-03-18T08:04:40.396Z,2.22
2019-03-18T08:09:43.857Z,1.90
2019-03-18T08:14:47.314Z,4.53
2019-03-18T08:19:50.769Z,4.17
2019-03-18T08:24:54.227Z,2.10
2019-03-18T08:29:57.680Z,2.08
2019-03-18T08:35:01.149Z,1.10
2019-03-18T08:40:07.344Z,2.40
2019-03-18T08:45:12.431Z,0.60
2019-03-18T08:50:15.889Z,0.98
2019-03-18T08:55:19.354Z,1.17
2019-03-18T09:00:22.807Z,0.95
2019-03-18T09:05:26.260Z,1.37
2019-03-18T09:10:29.711Z,1.37
2019-03-18T09:15:33.170Z,0.80
2019-03-18T09:20:36.623Z,1.47
2019-03-18T09:25:40.082Z,0.68
2019-03-18T09:30:43.542Z,2.45
2019-03-18T09:35:46.996Z,1.25
2019-03-18T09:40:50.623Z,0.90
2019-03-18T09:45:54.669Z,1.00
2019-03-18T09:50:58.116Z,2.95
2019-03-18T09:56:01.575Z,1.95
2019-03-18T10:01:05.027Z,0.45
2019-03-18T10:06:08.479Z,1.23
2019-03-18T10:11:11.938Z,0.50
2019-03-18T10:16:15.392Z,1.72
2019-03-18T10:21:18.844Z,0.98
2019-03-18T10:26:22.296Z,0.50
2019-03-18T10:31:25.752Z,0.65
2019-03-18T10:36:29.209Z,1.27
2019-03-18T10:41:32.676Z,1.10
2019-03-18T10:46:36.126Z,0.93
2019-03-18T10:51:39.595Z,0.50
2019-03-18T10:56:43.112Z,0.72
2019-03-18T11:01:46.554Z,0.82
2019-03-18T11:06:50.895Z,0.75
2019-03-18T11:11:54.349Z,0.67
2019-03-18T11:16:57.804Z,1.12
2019-03-18T11:22:01.267Z,0.80
2019-03-18T11:27:04.736Z,1.92
2019-03-18T11:32:08.196Z,0.67
2019-03-18T11:37:11.656Z,1.60
2019-03-18T11:42:15.125Z,1.42
2019-03-18T11:47:18.574Z,0.87
2019-03-18T11:52:22.798Z,1.03
2019-03-18T11:57:26.253Z,3.63
2019-03-18T12:02:29.716Z,0.87
2019-03-18T12:07:33.179Z,1.20
2019-03-18T12:12:36.649Z,1.57
2019-03-18T12:17:40.092Z,0.80
2019-03-18T12:22:43.788Z,1.30
2019-03-18T12:27:47.253Z,1.12
2019-03-18T12:32:50.783Z,1.75
2019-03-18T12:37:54.405Z,0.70
2019-03-18T12:42:57.863Z,1.60
2019-03-18T12:48:01.312Z,2.40
2019-03-18T12:53:04.935Z,3.03
2019-03-18T12:58:08.393Z,1.60
2019-03-18T13:03:11.848Z,0.83
2019-03-18T13:08:15.299Z,3.85
2019-03-18T13:13:18.757Z,5.93
2019-03-18T13:18:22.215Z,3.17
2019-03-18T13:23:25.673Z,3.40
2019-03-18T13:28:29.134Z,1.70
2019-03-18T13:33:32.594Z,2.63
2019-03-18T13:38:36.052Z,2.80
2019-03-18T13:43:39.509Z,2.47
2019-03-18T13:48:42.970Z,3.05
2019-03-18T13:53:46.429Z,5.53
2019-03-18T13:58:49.889Z,1.67
2019-03-18T14:03:53.349Z,1.80
2019-03-18T14:08:56.811Z,4.20
2019-03-18T14:14:00.268Z,2.70
2019-03-18T14:19:03.730Z,2.20
2019-03-18T14:24:07.188Z,1.82
2019-03-18T14:29:10.650Z,2.50
2019-03-18T14:34:14.113Z,2.00
2019-03-18T14:39:17.569Z,4.03
2019-03-18T14:44:21.026Z,3.87
2019-03-18T14:49:24.487Z,2.53
2019-03-18T14:54:27.955Z,2.37
2019-03-18T14:59:31.406Z,5.58
2019-03-18T15:04:34.867Z,2.43
2019-03-18T15:09:38.325Z,3.33
2019-03-18T15:14:41.783Z,4.13
2019-03-18T15:19:45.238Z,2.50
2019-03-18T15:24:48.705Z,4.42
2019-03-18T15:29:52.165Z,5.80
2019-03-18T15:34:55.626Z,1.77
2019-03-18T15:39:59.097Z,4.70
2019-03-18T15:45:03.407Z,4.30
2019-03-18T15:50:13.233Z,4.10
2019-03-18T15:55:16.765Z,1.50
2019-03-18T16:00:22.428Z,1.57
2019-03-18T16:05:25.882Z,2.12
2019-03-18T16:10:29.336Z,4.25
2019-03-18T16:15:32.793Z,2.65
2019-03-18T16:20:36.252Z,1.47
2019-03-18T16:25:39.710Z,1.77
2019-03-18T16:30:43.169Z,2.00
2019-03-18T16:35:46.631Z,3.12
2019-03-18T16:40:50.102Z,1.72
2019-03-18T16:45:53.562Z,3.10
2019-03-18T17:18:32.176Z,2.22
2019-03-18T17:28:58.644Z,9.90
2019-03-18T17:34:02.107Z,3.58
2019-03-18T17:39:07.672Z,4.22
2019-03-18T17:44:11.129Z,4.22
2019-03-18T17:49:14.593Z,3.52
2019-03-18T17:54:18.229Z,8.70
2019-03-18T17:59:21.749Z,5.13
2019-03-18T18:04:25.204Z,6.75
2019-03-18T18:09:28.665Z,4.30
2019-03-18T18:14:32.125Z,9.53
2019-03-18T18:19:35.591Z,6.58
2019-03-18T18:24:39.050Z,6.20
2019-03-18T18:29:42.512Z,5.97
2019-03-18T18:34:45.981Z,5.95
2019-03-18T18:39:49.440Z,4.03
2019-03-18T18:44:52.892Z,4.78
2019-03-18T18:49:56.587Z,3.80
2019-03-18T18:55:00.057Z,4.28
2019-03-18T19:00:05.324Z,4.55
2019-03-18T19:05:11.421Z,4.05
2019-03-18T19:10:16.991Z,3.10
2019-03-18T19:15:32.328Z,3.80
2019-03-18T19:20:35.788Z,5.47
2019-03-18T19:25:39.244Z,3.83
2019-03-18T19:30:42.704Z,1.67
2019-03-18T19:35:46.165Z,2.95
2019-03-18T19:40:49.629Z,2.27
2019-03-18T19:45:53.092Z,5.08
2019-03-18T19:50:56.548Z,4.28
2019-03-18T19:56:00.005Z,3.08
2019-03-18T20:01:03.467Z,3.50
2019-03-18T20:06:06.920Z,2.53
2019-03-18T20:11:10.376Z,2.02
2019-03-18T20:16:13.838Z,5.95
2019-03-18T20:21:17.297Z,5.22
2019-03-18T20:26:20.753Z,2.30
2019-03-18T20:31:25.955Z,2.63
2019-03-18T20:36:29.404Z,2.72
2019-03-18T20:41:32.866Z,3.27
2019-03-18T20:46:36.320Z,1.77
2019-03-18T20:51:40.015Z,2.63
2019-03-18T20:56:43.537Z,4.03
2019-03-18T21:01:47.007Z,1.85
2019-03-18T21:06:50.466Z,3.10
2019-03-18T21:11:53.925Z,2.95
2019-03-18T21:16:57.389Z,4.12
2019-03-18T21:22:00.853Z,2.27
2019-03-18T21:27:04.553Z,3.00
2019-03-18T21:32:08.022Z,1.45
2019-03-18T21:37:11.478Z,3.90
2019-03-18T21:42:15.005Z,1.87
2019-03-18T21:47:18.468Z,2.30
2019-03-18T21:52:21.960Z,2.52
2019-03-18T21:57:25.389Z,2.12
2019-03-18T22:02:28.844Z,2.50
2019-03-18T22:07:32.313Z,1.72
2019-03-18T22:12:35.771Z,1.87
2019-03-18T22:17:39.228Z,1.80
2019-03-18T22:22:42.761Z,1.87
2019-03-18T22:27:46.220Z,2.80
2019-03-18T22:32:49.673Z,2.27
2019-03-18T22:37:53.136Z,1.42
2019-03-18T22:42:56.598Z,2.15
2019-03-18T22:48:00.054Z,1.50
2019-03-18T22:53:03.510Z,3.27
2019-03-18T22:58:06.975Z,1.85
2019-03-18T23:03:10.421Z,1.47
2019-03-18T23:08:13.877Z,1.50
2019-03-18T23:13:17.336Z,1.70
2019-03-18T23:18:20.965Z,2.10
2019-03-18T23:23:24.422Z,3.00
2019-03-18T23:28:27.882Z,1.12
2019-03-18T23:33:31.344Z,1.83
2019-03-18T23:38:34.804Z,1.65
2019-03-18T23:43:38.267Z,1.90
2019-03-18T23:48:41.721Z,1.35
2019-03-18T23:53:45.181Z,1.00
2019-03-18T23:58:48.642Z,2.02
